sensor_id;sensor_type;location;lat;lon;timestamp;P1;durP1;ratioP1;P2;durP2;ratioP2
83282;SDS011;73190;50.780;5.658;2024-01-07T00:00:39;29.40;;;19.50;;
83282;SDS011;73190;50.780;5.658;2024-01-07T00:03:08;27.35;;;18.67;;
83282;SDS011;73190;50.780;5.658;2024-01-07T00:05:36;27.45;;;18.73;;
83282;SDS011;73190;50.780;5.658;2024-01-07T00:08:03;28.83;;;19.32;;
83282;SDS011;73190;50.780;5.658;2024-01-07T00:10:31;26.93;;;18.85;;
83282;SDS011;73190;50.780;5.658;2024-01-07T00:12:59;26.50;;;18.55;;
83282;SDS011;73190;50.780;5.658;2024-01-07T00:15:27;29.20;;;19.20;;
83282;SDS011;73190;50.780;5.658;2024-01-07T00:17:55;24.57;;;17.35;;
83282;SDS011;73190;50.780;5.658;2024-01-07T00:20:23;27.30;;;18.82;;
83282;SDS011;73190;50.780;5.658;2024-01-07T00:22:50;26.37;;;18.62;;
83282;SDS011;73190;50.780;5.658;2024-01-07T00:25:18;28.65;;;19.05;;
83282;SDS011;73190;50.780;5.658;2024-01-07T00:27:45;30.30;;;19.95;;
83282;SDS011;73190;50.780;5.658;2024-01-07T00:30:13;29.57;;;20.25;;
83282;SDS011;73190;50.780;5.658;2024-01-07T00:32:41;28.57;;;19.37;;
83282;SDS011;73190;50.780;5.658;2024-01-07T00:35:08;31.97;;;20.10;;
83282;SDS011;73190;50.780;5.658;2024-01-07T00:37:36;30.15;;;19.60;;
83282;SDS011;73190;50.780;5.658;2024-01-07T00:40:05;29.00;;;19.65;;
83282;SDS011;73190;50.780;5.658;2024-01-07T00:42:33;28.27;;;19.77;;
83282;SDS011;73190;50.780;5.658;2024-01-07T00:45:00;28.35;;;20.08;;
83282;SDS011;73190;50.780;5.658;2024-01-07T00:47:28;30.10;;;20.52;;
83282;SDS011;73190;50.780;5.658;2024-01-07T00:49:56;30.92;;;20.20;;
83282;SDS011;73190;50.780;5.658;2024-01-07T00:52:23;29.60;;;20.17;;
83282;SDS011;73190;50.780;5.658;2024-01-07T00:54:51;33.23;;;21.40;;
83282;SDS011;73190;50.780;5.658;2024-01-07T00:57:19;31.60;;;20.57;;
83282;SDS011;73190;50.780;5.658;2024-01-07T00:59:46;35.38;;;21.70;;
83282;SDS011;73190;50.780;5.658;2024-01-07T01:02:14;31.73;;;20.97;;
83282;SDS011;73190;50.780;5.658;2024-01-07T01:04:41;30.45;;;21.12;;
83282;SDS011;73190;50.780;5.658;2024-01-07T01:07:09;27.22;;;19.32;;
83282;SDS011;73190;50.780;5.658;2024-01-07T01:09:37;28.40;;;19.70;;
83282;SDS011;73190;50.780;5.658;2024-01-07T01:12:05;28.62;;;19.32;;
83282;SDS011;73190;50.780;5.658;2024-01-07T01:14:33;27.90;;;19.70;;
83282;SDS011;73190;50.780;5.658;2024-01-07T01:17:00;25.72;;;19.07;;
83282;SDS011;73190;50.780;5.658;2024-01-07T01:19:28;28.55;;;20.43;;
83282;SDS011;73190;50.780;5.658;2024-01-07T01:21:55;25.48;;;19.32;;
83282;SDS011;73190;50.780;5.658;2024-01-07T01:24:23;28.55;;;20.88;;
83282;SDS011;73190;50.780;5.658;2024-01-07T01:26:50;27.32;;;20.25;;
83282;SDS011;73190;50.780;5.658;2024-01-07T01:29:18;26.02;;;19.65;;
83282;SDS011;73190;50.780;5.658;2024-01-07T01:31:46;26.82;;;19.42;;
83282;SDS011;73190;50.780;5.658;2024-01-07T01:34:13;26.23;;;19.37;;
83282;SDS011;73190;50.780;5.658;2024-01-07T01:36:42;27.45;;;19.92;;
83282;SDS011;73190;50.780;5.658;2024-01-07T01:39:09;28.65;;;20.45;;
83282;SDS011;73190;50.780;5.658;2024-01-07T01:41:37;29.45;;;20.68;;
83282;SDS011;73190;50.780;5.658;2024-01-07T01:44:05;28.62;;;20.52;;
83282;SDS011;73190;50.780;5.658;2024-01-07T01:46:32;29.27;;;20.75;;
83282;SDS011;73190;50.780;5.658;2024-01-07T01:49:01;31.82;;;21.40;;
83282;SDS011;73190;50.780;5.658;2024-01-07T01:51:29;28.38;;;20.17;;
83282;SDS011;73190;50.780;5.658;2024-01-07T01:53:57;31.10;;;21.20;;
83282;SDS011;73190;50.780;5.658;2024-01-07T01:56:26;28.98;;;20.32;;
83282;SDS011;73190;50.780;5.658;2024-01-07T01:58:55;28.40;;;19.40;;
83282;SDS011;73190;50.780;5.658;2024-01-07T02:01:23;28.00;;;19.55;;
83282;SDS011;73190;50.780;5.658;2024-01-07T02:03:50;29.35;;;19.98;;
83282;SDS011;73190;50.780;5.658;2024-01-07T02:06:19;30.20;;;20.17;;
83282;SDS011;73190;50.780;5.658;2024-01-07T02:08:48;30.53;;;20.53;;
83282;SDS011;73190;50.780;5.658;2024-01-07T02:11:21;30.60;;;21.12;;
83282;SDS011;73190;50.780;5.658;2024-01-07T02:13:46;29.75;;;20.57;;
83282;SDS011;73190;50.780;5.658;2024-01-07T02:16:14;28.30;;;19.55;;
83282;SDS011;73190;50.780;5.658;2024-01-07T02:18:43;26.68;;;19.52;;
83282;SDS011;73190;50.780;5.658;2024-01-07T02:21:12;29.32;;;20.50;;
83282;SDS011;73190;50.780;5.658;2024-01-07T02:23:41;29.52;;;20.72;;
83282;SDS011;73190;50.780;5.658;2024-01-07T02:26:08;26.77;;;19.67;;
83282;SDS011;73190;50.780;5.658;2024-01-07T02:28:36;29.37;;;20.43;;
83282;SDS011;73190;50.780;5.658;2024-01-07T02:31:03;30.80;;;21.07;;
83282;SDS011;73190;50.780;5.658;2024-01-07T02:33:31;32.20;;;20.62;;
83282;SDS011;73190;50.780;5.658;2024-01-07T02:35:59;31.12;;;21.17;;
83282;SDS011;73190;50.780;5.658;2024-01-07T02:38:26;36.88;;;23.00;;
83282;SDS011;73190;50.780;5.658;2024-01-07T02:40:54;36.03;;;23.27;;
83282;SDS011;73190;50.780;5.658;2024-01-07T02:43:21;33.02;;;23.15;;
83282;SDS011;73190;50.780;5.658;2024-01-07T02:45:49;34.98;;;22.42;;
83282;SDS011;73190;50.780;5.658;2024-01-07T02:48:16;32.23;;;21.73;;
83282;SDS011;73190;50.780;5.658;2024-01-07T02:50:44;31.23;;;21.12;;
83282;SDS011;73190;50.780;5.658;2024-01-07T02:53:12;34.00;;;22.95;;
83282;SDS011;73190;50.780;5.658;2024-01-07T02:55:39;31.68;;;21.85;;
83282;SDS011;73190;50.780;5.658;2024-01-07T02:58:07;36.00;;;22.98;;
83282;SDS011;73190;50.780;5.658;2024-01-07T03:00:34;34.50;;;21.57;;
83282;SDS011;73190;50.780;5.658;2024-01-07T03:03:02;34.63;;;22.95;;
83282;SDS011;73190;50.780;5.658;2024-01-07T03:05:30;34.23;;;22.67;;
83282;SDS011;73190;50.780;5.658;2024-01-07T03:07:58;38.25;;;24.18;;
83282;SDS011;73190;50.780;5.658;2024-01-07T03:10:26;35.00;;;23.12;;
83282;SDS011;73190;50.780;5.658;2024-01-07T03:12:54;35.10;;;23.05;;
83282;SDS011;73190;50.780;5.658;2024-01-07T03:15:21;33.35;;;22.73;;
83282;SDS011;73190;50.780;5.658;2024-01-07T03:17:49;36.50;;;23.47;;
83282;SDS011;73190;50.780;5.658;2024-01-07T03:20:16;35.95;;;23.67;;
83282;SDS011;73190;50.780;5.658;2024-01-07T03:22:44;37.60;;;22.98;;
83282;SDS011;73190;50.780;5.658;2024-01-07T03:25:11;37.38;;;23.22;;
83282;SDS011;73190;50.780;5.658;2024-01-07T03:27:39;35.30;;;23.30;;
83282;SDS011;73190;50.780;5.658;2024-01-07T03:30:06;36.33;;;23.67;;
83282;SDS011;73190;50.780;5.658;2024-01-07T03:32:35;33.98;;;21.68;;
83282;SDS011;73190;50.780;5.658;2024-01-07T03:35:03;35.60;;;23.40;;
83282;SDS011;73190;50.780;5.658;2024-01-07T03:37:30;32.63;;;22.05;;
83282;SDS011;73190;50.780;5.658;2024-01-07T03:39:58;35.15;;;23.73;;
83282;SDS011;73190;50.780;5.658;2024-01-07T03:42:25;34.75;;;22.87;;
83282;SDS011;73190;50.780;5.658;2024-01-07T03:44:53;36.73;;;22.52;;
83282;SDS011;73190;50.780;5.658;2024-01-07T03:47:20;37.88;;;22.62;;
83282;SDS011;73190;50.780;5.658;2024-01-07T03:49:48;37.45;;;22.13;;
83282;SDS011;73190;50.780;5.658;2024-01-07T03:52:15;38.78;;;22.48;;
83282;SDS011;73190;50.780;5.658;2024-01-07T03:54:43;36.85;;;21.75;;
83282;SDS011;73190;50.780;5.658;2024-01-07T03:57:10;40.45;;;23.60;;
83282;SDS011;73190;50.780;5.658;2024-01-07T03:59:40;39.90;;;23.57;;
83282;SDS011;73190;50.780;5.658;2024-01-07T04:02:07;41.42;;;22.87;;
83282;SDS011;73190;50.780;5.658;2024-01-07T04:04:35;40.25;;;24.43;;
83282;SDS011;73190;50.780;5.658;2024-01-07T04:07:03;40.70;;;22.52;;
83282;SDS011;73190;50.780;5.658;2024-01-07T04:09:30;33.02;;;20.20;;
83282;SDS011;73190;50.780;5.658;2024-01-07T04:11:58;32.55;;;20.02;;
83282;SDS011;73190;50.780;5.658;2024-01-07T04:14:25;32.75;;;18.85;;
83282;SDS011;73190;50.780;5.658;2024-01-07T04:16:54;30.92;;;18.05;;
83282;SDS011;73190;50.780;5.658;2024-01-07T04:19:22;28.17;;;17.05;;
83282;SDS011;73190;50.780;5.658;2024-01-07T04:21:49;27.80;;;17.42;;
83282;SDS011;73190;50.780;5.658;2024-01-07T04:24:17;29.65;;;15.70;;
83282;SDS011;73190;50.780;5.658;2024-01-07T04:26:44;26.95;;;16.57;;
83282;SDS011;73190;50.780;5.658;2024-01-07T04:29:12;25.97;;;16.15;;
83282;SDS011;73190;50.780;5.658;2024-01-07T04:31:39;25.12;;;15.15;;
83282;SDS011;73190;50.780;5.658;2024-01-07T04:34:07;23.50;;;14.50;;
83282;SDS011;73190;50.780;5.658;2024-01-07T04:36:34;24.47;;;14.50;;
83282;SDS011;73190;50.780;5.658;2024-01-07T04:39:02;26.40;;;14.87;;
83282;SDS011;73190;50.780;5.658;2024-01-07T04:41:30;26.20;;;14.68;;
83282;SDS011;73190;50.780;5.658;2024-01-07T04:43:57;25.72;;;15.15;;
83282;SDS011;73190;50.780;5.658;2024-01-07T04:46:25;23.90;;;14.63;;
83282;SDS011;73190;50.780;5.658;2024-01-07T04:48:52;23.00;;;14.40;;
83282;SDS011;73190;50.780;5.658;2024-01-07T04:51:20;27.65;;;16.00;;
83282;SDS011;73190;50.780;5.658;2024-01-07T04:53:47;24.63;;;14.33;;
83282;SDS011;73190;50.780;5.658;2024-01-07T04:56:15;27.48;;;15.58;;
83282;SDS011;73190;50.780;5.658;2024-01-07T04:58:42;28.67;;;15.78;;
83282;SDS011;73190;50.780;5.658;2024-01-07T05:01:10;24.85;;;15.05;;
83282;SDS011;73190;50.780;5.658;2024-01-07T05:03:37;24.15;;;14.03;;
83282;SDS011;73190;50.780;5.658;2024-01-07T05:06:05;26.82;;;14.80;;
83282;SDS011;73190;50.780;5.658;2024-01-07T05:08:35;28.73;;;15.65;;
83282;SDS011;73190;50.780;5.658;2024-01-07T05:11:04;35.58;;;17.55;;
83282;SDS011;73190;50.780;5.658;2024-01-07T05:13:31;29.27;;;15.93;;
83282;SDS011;73190;50.780;5.658;2024-01-07T05:15:59;28.65;;;15.88;;
83282;SDS011;73190;50.780;5.658;2024-01-07T05:18:27;27.15;;;16.65;;
83282;SDS011;73190;50.780;5.658;2024-01-07T05:20:54;51.95;;;28.10;;
83282;SDS011;73190;50.780;5.658;2024-01-07T05:23:22;47.83;;;28.17;;
83282;SDS011;73190;50.780;5.658;2024-01-07T05:25:49;33.65;;;19.32;;
83282;SDS011;73190;50.780;5.658;2024-01-07T05:28:17;31.17;;;17.92;;
83282;SDS011;73190;50.780;5.658;2024-01-07T05:30:46;24.40;;;16.20;;
83282;SDS011;73190;50.780;5.658;2024-01-07T05:33:14;45.03;;;27.32;;
83282;SDS011;73190;50.780;5.658;2024-01-07T05:35:41;28.90;;;17.32;;
83282;SDS011;73190;50.780;5.658;2024-01-07T05:38:09;20.05;;;13.13;;
83282;SDS011;73190;50.780;5.658;2024-01-07T05:40:36;21.35;;;14.63;;
83282;SDS011;73190;50.780;5.658;2024-01-07T05:43:04;22.55;;;14.75;;
83282;SDS011;73190;50.780;5.658;2024-01-07T05:45:31;22.45;;;15.05;;
83282;SDS011;73190;50.780;5.658;2024-01-07T05:47:59;27.00;;;17.52;;
83282;SDS011;73190;50.780;5.658;2024-01-07T05:50:26;24.85;;;17.10;;
83282;SDS011;73190;50.780;5.658;2024-01-07T05:52:54;25.12;;;15.88;;
83282;SDS011;73190;50.780;5.658;2024-01-07T05:55:21;27.25;;;15.98;;
83282;SDS011;73190;50.780;5.658;2024-01-07T05:57:49;28.55;;;17.80;;
83282;SDS011;73190;50.780;5.658;2024-01-07T06:00:16;25.75;;;16.40;;
83282;SDS011;73190;50.780;5.658;2024-01-07T06:02:44;25.17;;;16.67;;
83282;SDS011;73190;50.780;5.658;2024-01-07T06:05:11;24.63;;;15.85;;
83282;SDS011;73190;50.780;5.658;2024-01-07T06:07:39;26.93;;;17.07;;
83282;SDS011;73190;50.780;5.658;2024-01-07T06:10:07;28.07;;;17.23;;
83282;SDS011;73190;50.780;5.658;2024-01-07T06:12:35;27.40;;;17.77;;
83282;SDS011;73190;50.780;5.658;2024-01-07T06:15:02;30.23;;;19.07;;
83282;SDS011;73190;50.780;5.658;2024-01-07T06:17:31;27.60;;;17.62;;
83282;SDS011;73190;50.780;5.658;2024-01-07T06:19:59;30.12;;;17.70;;
83282;SDS011;73190;50.780;5.658;2024-01-07T06:22:26;33.83;;;19.37;;
83282;SDS011;73190;50.780;5.658;2024-01-07T06:24:54;32.45;;;19.30;;
83282;SDS011;73190;50.780;5.658;2024-01-07T06:27:21;36.17;;;21.80;;
83282;SDS011;73190;50.780;5.658;2024-01-07T06:29:49;34.20;;;21.07;;
83282;SDS011;73190;50.780;5.658;2024-01-07T06:32:16;29.63;;;18.07;;
83282;SDS011;73190;50.780;5.658;2024-01-07T06:34:44;32.30;;;19.60;;
83282;SDS011;73190;50.780;5.658;2024-01-07T06:37:12;31.52;;;17.77;;
83282;SDS011;73190;50.780;5.658;2024-01-07T06:39:39;31.77;;;19.45;;
83282;SDS011;73190;50.780;5.658;2024-01-07T06:42:07;30.12;;;18.37;;
83282;SDS011;73190;50.780;5.658;2024-01-07T06:44:34;30.80;;;18.30;;
83282;SDS011;73190;50.780;5.658;2024-01-07T06:47:02;29.32;;;18.92;;
83282;SDS011;73190;50.780;5.658;2024-01-07T06:49:29;28.75;;;18.42;;
83282;SDS011;73190;50.780;5.658;2024-01-07T06:51:57;27.10;;;18.05;;
83282;SDS011;73190;50.780;5.658;2024-01-07T06:54:25;35.45;;;21.87;;
83282;SDS011;73190;50.780;5.658;2024-01-07T06:56:52;45.38;;;30.48;;
83282;SDS011;73190;50.780;5.658;2024-01-07T06:59:20;40.95;;;23.47;;
83282;SDS011;73190;50.780;5.658;2024-01-07T07:01:48;41.13;;;26.48;;
83282;SDS011;73190;50.780;5.658;2024-01-07T07:04:15;41.45;;;26.85;;
83282;SDS011;73190;50.780;5.658;2024-01-07T07:06:43;35.13;;;22.22;;
83282;SDS011;73190;50.780;5.658;2024-01-07T07:09:10;43.58;;;29.67;;
83282;SDS011;73190;50.780;5.658;2024-01-07T07:11:38;41.28;;;25.32;;
83282;SDS011;73190;50.780;5.658;2024-01-07T07:14:06;42.38;;;26.23;;
83282;SDS011;73190;50.780;5.658;2024-01-07T07:16:33;37.28;;;22.22;;
83282;SDS011;73190;50.780;5.658;2024-01-07T07:19:01;37.30;;;23.40;;
83282;SDS011;73190;50.780;5.658;2024-01-07T07:21:28;37.67;;;25.20;;
83282;SDS011;73190;50.780;5.658;2024-01-07T07:23:56;34.00;;;22.73;;
83282;SDS011;73190;50.780;5.658;2024-01-07T07:26:23;35.28;;;22.67;;
83282;SDS011;73190;50.780;5.658;2024-01-07T07:28:51;35.90;;;21.62;;
83282;SDS011;73190;50.780;5.658;2024-01-07T07:31:18;32.85;;;21.05;;
83282;SDS011;73190;50.780;5.658;2024-01-07T07:33:46;32.93;;;20.57;;
83282;SDS011;73190;50.780;5.658;2024-01-07T07:36:14;33.92;;;22.85;;
83282;SDS011;73190;50.780;5.658;2024-01-07T07:38:42;32.42;;;20.35;;
83282;SDS011;73190;50.780;5.658;2024-01-07T07:41:09;30.72;;;19.98;;
83282;SDS011;73190;50.780;5.658;2024-01-07T07:43:37;29.25;;;19.27;;
83282;SDS011;73190;50.780;5.658;2024-01-07T07:46:04;28.90;;;19.65;;
83282;SDS011;73190;50.780;5.658;2024-01-07T07:48:32;30.48;;;19.50;;
83282;SDS011;73190;50.780;5.658;2024-01-07T07:50:59;27.45;;;19.37;;
83282;SDS011;73190;50.780;5.658;2024-01-07T07:53:27;28.42;;;19.92;;
83282;SDS011;73190;50.780;5.658;2024-01-07T07:55:54;27.35;;;19.12;;
83282;SDS011;73190;50.780;5.658;2024-01-07T07:58:22;29.45;;;20.12;;
83282;SDS011;73190;50.780;5.658;2024-01-07T08:00:49;28.67;;;20.02;;
83282;SDS011;73190;50.780;5.658;2024-01-07T08:03:17;31.40;;;20.32;;
83282;SDS011;73190;50.780;5.658;2024-01-07T08:05:44;29.27;;;20.10;;
83282;SDS011;73190;50.780;5.658;2024-01-07T08:08:12;29.40;;;20.65;;
83282;SDS011;73190;50.780;5.658;2024-01-07T08:10:40;32.85;;;21.33;;
83282;SDS011;73190;50.780;5.658;2024-01-07T08:13:07;32.00;;;22.42;;
83282;SDS011;73190;50.780;5.658;2024-01-07T08:15:35;31.95;;;22.35;;
83282;SDS011;73190;50.780;5.658;2024-01-07T08:18:04;34.35;;;24.25;;
83282;SDS011;73190;50.780;5.658;2024-01-07T08:20:31;44.33;;;29.12;;
83282;SDS011;73190;50.780;5.658;2024-01-07T08:22:59;61.98;;;38.58;;
83282;SDS011;73190;50.780;5.658;2024-01-07T08:25:27;95.50;;;54.18;;
83282;SDS011;73190;50.780;5.658;2024-01-07T08:27:54;42.35;;;26.80;;
83282;SDS011;73190;50.780;5.658;2024-01-07T08:30:22;40.20;;;25.97;;
83282;SDS011;73190;50.780;5.658;2024-01-07T08:32:50;46.73;;;29.45;;
83282;SDS011;73190;50.780;5.658;2024-01-07T08:35:17;76.17;;;42.15;;
83282;SDS011;73190;50.780;5.658;2024-01-07T08:37:45;53.75;;;33.08;;
83282;SDS011;73190;50.780;5.658;2024-01-07T08:40:12;28.65;;;19.95;;
83282;SDS011;73190;50.780;5.658;2024-01-07T08:42:40;25.57;;;18.45;;
83282;SDS011;73190;50.780;5.658;2024-01-07T08:45:08;24.87;;;17.73;;
83282;SDS011;73190;50.780;5.658;2024-01-07T08:47:37;22.52;;;16.25;;
83282;SDS011;73190;50.780;5.658;2024-01-07T08:50:05;29.48;;;19.35;;
83282;SDS011;73190;50.780;5.658;2024-01-07T08:52:33;30.25;;;21.45;;
83282;SDS011;73190;50.780;5.658;2024-01-07T08:55:02;27.13;;;16.93;;
83282;SDS011;73190;50.780;5.658;2024-01-07T08:57:34;27.22;;;20.52;;
83282;SDS011;73190;50.780;5.658;2024-01-07T09:00:02;24.47;;;18.55;;
83282;SDS011;73190;50.780;5.658;2024-01-07T09:02:30;23.77;;;17.62;;
83282;SDS011;73190;50.780;5.658;2024-01-07T09:04:58;23.90;;;18.00;;
83282;SDS011;73190;50.780;5.658;2024-01-07T09:07:25;29.57;;;19.92;;
83282;SDS011;73190;50.780;5.658;2024-01-07T09:09:53;26.12;;;18.57;;
83282;SDS011;73190;50.780;5.658;2024-01-07T09:12:23;24.47;;;16.85;;
83282;SDS011;73190;50.780;5.658;2024-01-07T09:14:51;25.50;;;17.52;;
83282;SDS011;73190;50.780;5.658;2024-01-07T09:17:19;26.37;;;17.67;;
83282;SDS011;73190;50.780;5.658;2024-01-07T09:19:47;22.73;;;15.63;;
83282;SDS011;73190;50.780;5.658;2024-01-07T09:22:14;24.25;;;16.77;;
83282;SDS011;73190;50.780;5.658;2024-01-07T09:24:42;24.72;;;17.55;;
83282;SDS011;73190;50.780;5.658;2024-01-07T09:27:09;31.17;;;17.57;;
83282;SDS011;73190;50.780;5.658;2024-01-07T09:29:37;28.42;;;19.35;;
83282;SDS011;73190;50.780;5.658;2024-01-07T09:32:05;30.95;;;19.92;;
83282;SDS011;73190;50.780;5.658;2024-01-07T09:34:33;30.50;;;20.32;;
83282;SDS011;73190;50.780;5.658;2024-01-07T09:37:00;30.30;;;21.12;;
83282;SDS011;73190;50.780;5.658;2024-01-07T09:39:28;36.00;;;23.32;;
83282;SDS011;73190;50.780;5.658;2024-01-07T09:41:55;35.13;;;22.25;;
83282;SDS011;73190;50.780;5.658;2024-01-07T09:44:23;35.28;;;22.90;;
83282;SDS011;73190;50.780;5.658;2024-01-07T09:46:51;38.02;;;24.75;;
83282;SDS011;73190;50.780;5.658;2024-01-07T09:49:20;40.23;;;24.85;;
83282;SDS011;73190;50.780;5.658;2024-01-07T09:51:48;38.70;;;24.92;;
83282;SDS011;73190;50.780;5.658;2024-01-07T09:54:18;34.98;;;24.35;;
83282;SDS011;73190;50.780;5.658;2024-01-07T09:56:55;38.35;;;25.00;;
83282;SDS011;73190;50.780;5.658;2024-01-07T09:59:24;36.05;;;23.07;;
83282;SDS011;73190;50.780;5.658;2024-01-07T10:01:54;33.15;;;23.25;;
83282;SDS011;73190;50.780;5.658;2024-01-07T10:04:26;35.95;;;23.12;;
83282;SDS011;73190;50.780;5.658;2024-01-07T10:06:54;37.03;;;23.52;;
83282;SDS011;73190;50.780;5.658;2024-01-07T10:09:22;35.10;;;23.67;;
83282;SDS011;73190;50.780;5.658;2024-01-07T10:11:52;33.92;;;23.27;;
83282;SDS011;73190;50.780;5.658;2024-01-07T10:14:19;33.13;;;22.25;;
83282;SDS011;73190;50.780;5.658;2024-01-07T10:16:52;30.60;;;20.15;;
83282;SDS011;73190;50.780;5.658;2024-01-07T10:19:20;32.58;;;20.48;;
83282;SDS011;73190;50.780;5.658;2024-01-07T10:22:01;27.32;;;18.85;;
83282;SDS011;73190;50.780;5.658;2024-01-07T10:24:37;26.07;;;18.25;;
83282;SDS011;73190;50.780;5.658;2024-01-07T10:27:06;27.82;;;17.07;;
83282;SDS011;73190;50.780;5.658;2024-01-07T10:29:34;26.12;;;18.80;;
83282;SDS011;73190;50.780;5.658;2024-01-07T10:32:02;29.67;;;20.05;;
83282;SDS011;73190;50.780;5.658;2024-01-07T10:34:32;24.37;;;18.25;;
83282;SDS011;73190;50.780;5.658;2024-01-07T10:37:02;23.87;;;16.00;;
83282;SDS011;73190;50.780;5.658;2024-01-07T10:39:34;24.90;;;17.77;;
83282;SDS011;73190;50.780;5.658;2024-01-07T10:42:03;22.65;;;16.20;;
83282;SDS011;73190;50.780;5.658;2024-01-07T10:44:32;24.45;;;17.00;;
83282;SDS011;73190;50.780;5.658;2024-01-07T10:47:01;24.30;;;17.85;;
83282;SDS011;73190;50.780;5.658;2024-01-07T10:49:32;26.00;;;18.32;;
83282;SDS011;73190;50.780;5.658;2024-01-07T10:52:05;24.57;;;17.67;;
83282;SDS011;73190;50.780;5.658;2024-01-07T10:54:34;24.37;;;18.10;;
83282;SDS011;73190;50.780;5.658;2024-01-07T10:57:13;23.45;;;17.07;;
83282;SDS011;73190;50.780;5.658;2024-01-07T10:59:44;34.38;;;23.15;;
83282;SDS011;73190;50.780;5.658;2024-01-07T11:02:13;30.02;;;21.55;;
83282;SDS011;73190;50.780;5.658;2024-01-07T11:04:46;30.57;;;21.33;;
83282;SDS011;73190;50.780;5.658;2024-01-07T11:07:19;31.45;;;21.77;;
83282;SDS011;73190;50.780;5.658;2024-01-07T11:12:31;28.57;;;20.17;;
83282;SDS011;73190;50.780;5.658;2024-01-07T11:14:59;27.22;;;18.25;;
83282;SDS011;73190;50.780;5.658;2024-01-07T11:17:48;29.80;;;19.85;;
83282;SDS011;73190;50.780;5.658;2024-01-07T11:20:00;25.55;;;19.15;;
83282;SDS011;73190;50.780;5.658;2024-01-07T11:22:28;27.55;;;20.05;;
83282;SDS011;73190;50.780;5.658;2024-01-07T11:24:56;29.67;;;20.40;;
83282;SDS011;73190;50.780;5.658;2024-01-07T11:27:25;25.10;;;18.45;;
83282;SDS011;73190;50.780;5.658;2024-01-07T11:29:55;28.00;;;18.82;;
83282;SDS011;73190;50.780;5.658;2024-01-07T11:32:33;27.50;;;18.50;;
83282;SDS011;73190;50.780;5.658;2024-01-07T11:34:56;27.55;;;19.02;;
83282;SDS011;73190;50.780;5.658;2024-01-07T11:37:25;25.13;;;18.17;;
83282;SDS011;73190;50.780;5.658;2024-01-07T11:39:56;26.23;;;17.60;;
83282;SDS011;73190;50.780;5.658;2024-01-07T11:42:25;28.00;;;20.00;;
83282;SDS011;73190;50.780;5.658;2024-01-07T11:44:53;28.30;;;19.10;;
83282;SDS011;73190;50.780;5.658;2024-01-07T11:47:22;31.25;;;20.48;;
83282;SDS011;73190;50.780;5.658;2024-01-07T11:49:52;26.35;;;19.42;;
83282;SDS011;73190;50.780;5.658;2024-01-07T11:52:20;30.12;;;19.73;;
83282;SDS011;73190;50.780;5.658;2024-01-07T11:54:48;37.60;;;22.15;;
83282;SDS011;73190;50.780;5.658;2024-01-07T11:57:16;31.85;;;20.95;;
83282;SDS011;73190;50.780;5.658;2024-01-07T11:59:43;33.18;;;20.25;;
83282;SDS011;73190;50.780;5.658;2024-01-07T12:02:11;26.97;;;19.45;;
83282;SDS011;73190;50.780;5.658;2024-01-07T12:04:40;63.00;;;30.82;;
83282;SDS011;73190;50.780;5.658;2024-01-07T12:07:08;54.40;;;30.55;;
83282;SDS011;73190;50.780;5.658;2024-01-07T12:09:38;86.42;;;39.95;;
83282;SDS011;73190;50.780;5.658;2024-01-07T12:12:06;58.20;;;30.65;;
83282;SDS011;73190;50.780;5.658;2024-01-07T12:14:34;77.35;;;36.90;;
83282;SDS011;73190;50.780;5.658;2024-01-07T12:17:02;70.92;;;37.00;;
83282;SDS011;73190;50.780;5.658;2024-01-07T12:19:29;29.18;;;20.85;;
83282;SDS011;73190;50.780;5.658;2024-01-07T12:22:03;30.17;;;21.68;;
83282;SDS011;73190;50.780;5.658;2024-01-07T12:24:33;30.30;;;21.52;;
83282;SDS011;73190;50.780;5.658;2024-01-07T12:27:04;29.95;;;21.77;;
83282;SDS011;73190;50.780;5.658;2024-01-07T12:29:32;28.57;;;21.62;;
83282;SDS011;73190;50.780;5.658;2024-01-07T12:32:00;31.65;;;22.67;;
83282;SDS011;73190;50.780;5.658;2024-01-07T12:34:28;31.35;;;20.90;;
83282;SDS011;73190;50.780;5.658;2024-01-07T12:36:57;29.15;;;20.95;;
83282;SDS011;73190;50.780;5.658;2024-01-07T12:39:25;30.27;;;20.90;;
83282;SDS011;73190;50.780;5.658;2024-01-07T12:41:53;30.10;;;21.17;;
83282;SDS011;73190;50.780;5.658;2024-01-07T12:44:21;29.65;;;20.48;;
83282;SDS011;73190;50.780;5.658;2024-01-07T12:46:48;30.68;;;20.55;;
83282;SDS011;73190;50.780;5.658;2024-01-07T12:49:17;27.50;;;19.75;;
83282;SDS011;73190;50.780;5.658;2024-01-07T12:51:45;26.80;;;19.82;;
83282;SDS011;73190;50.780;5.658;2024-01-07T12:54:12;23.77;;;18.48;;
83282;SDS011;73190;50.780;5.658;2024-01-07T12:56:40;26.48;;;19.05;;
83282;SDS011;73190;50.780;5.658;2024-01-07T12:59:07;26.87;;;18.98;;
83282;SDS011;73190;50.780;5.658;2024-01-07T13:01:35;24.50;;;17.92;;
83282;SDS011;73190;50.780;5.658;2024-01-07T13:04:03;28.45;;;19.40;;
83282;SDS011;73190;50.780;5.658;2024-01-07T13:06:31;27.93;;;19.25;;
83282;SDS011;73190;50.780;5.658;2024-01-07T13:08:58;32.73;;;22.17;;
83282;SDS011;73190;50.780;5.658;2024-01-07T13:11:26;36.15;;;25.08;;
83282;SDS011;73190;50.780;5.658;2024-01-07T13:13:54;33.35;;;23.67;;
83282;SDS011;73190;50.780;5.658;2024-01-07T13:16:23;25.97;;;16.50;;
83282;SDS011;73190;50.780;5.658;2024-01-07T13:18:51;22.20;;;16.15;;
83282;SDS011;73190;50.780;5.658;2024-01-07T13:21:19;28.70;;;17.90;;
83282;SDS011;73190;50.780;5.658;2024-01-07T13:23:47;22.75;;;16.73;;
83282;SDS011;73190;50.780;5.658;2024-01-07T13:26:15;21.10;;;15.38;;
83282;SDS011;73190;50.780;5.658;2024-01-07T13:31:30;21.15;;;14.68;;
83282;SDS011;73190;50.780;5.658;2024-01-07T13:33:58;19.15;;;12.93;;
83282;SDS011;73190;50.780;5.658;2024-01-07T13:36:25;19.95;;;13.78;;
83282;SDS011;73190;50.780;5.658;2024-01-07T13:38:53;19.67;;;13.13;;
83282;SDS011;73190;50.780;5.658;2024-01-07T13:41:20;42.65;;;22.52;;
83282;SDS011;73190;50.780;5.658;2024-01-07T13:43:49;25.50;;;16.95;;
83282;SDS011;73190;50.780;5.658;2024-01-07T13:46:17;34.20;;;21.33;;
83282;SDS011;73190;50.780;5.658;2024-01-07T13:48:46;25.80;;;16.52;;
83282;SDS011;73190;50.780;5.658;2024-01-07T13:51:14;33.33;;;17.12;;
83282;SDS011;73190;50.780;5.658;2024-01-07T13:53:41;20.48;;;15.18;;
83282;SDS011;73190;50.780;5.658;2024-01-07T13:56:11;23.95;;;16.40;;
83282;SDS011;73190;50.780;5.658;2024-01-07T13:58:39;22.15;;;15.78;;
83282;SDS011;73190;50.780;5.658;2024-01-07T14:01:07;20.95;;;15.32;;
83282;SDS011;73190;50.780;5.658;2024-01-07T14:03:35;20.05;;;13.72;;
83282;SDS011;73190;50.780;5.658;2024-01-07T14:06:02;22.77;;;14.75;;
83282;SDS011;73190;50.780;5.658;2024-01-07T14:08:30;20.80;;;14.85;;
83282;SDS011;73190;50.780;5.658;2024-01-07T14:10:59;22.65;;;14.50;;
83282;SDS011;73190;50.780;5.658;2024-01-07T14:13:28;25.10;;;15.63;;
83282;SDS011;73190;50.780;5.658;2024-01-07T14:15:56;27.00;;;16.95;;
83282;SDS011;73190;50.780;5.658;2024-01-07T14:18:23;36.70;;;21.27;;
83282;SDS011;73190;50.780;5.658;2024-01-07T14:20:51;36.70;;;19.07;;
83282;SDS011;73190;50.780;5.658;2024-01-07T14:23:19;39.73;;;21.23;;
83282;SDS011;73190;50.780;5.658;2024-01-07T14:25:47;43.90;;;24.50;;
83282;SDS011;73190;50.780;5.658;2024-01-07T14:28:14;47.43;;;23.12;;
83282;SDS011;73190;50.780;5.658;2024-01-07T14:30:42;59.63;;;27.70;;